Etusivu
METAR-TAF:

METAR-TAF

Lentoasemat :

Sexton Summit, Oregon, Yhdysvallat

Leveyspiiri: 42-36-01N, Pituuspiiri: 123-21-51W, korkeus merenpinnasta: 0 m

Tämänhetkinen sää

Tämä raportti tehtiin 43 minuuttia sitten, kello 11.56 UTC
Tuuli 10 kn etelästä
Lämpötila 7°C
Kosteus 81%
Ilmanpaine 1019 hPa
Näkyvyys: 16.1 km
Pilvistä 400 ft:n korkeudessa
heikkoa sadetta

METAR: KSXT 151156Z AUTO 19010KT 10SM -RA OVC004 07/04 A3010 RMK AO2 CIG 003V007 SLP182 P0000 60000 T00670044 10072 20061 51003

Aika: 04:39 (12:39 UTC)


TAF: puuttuu

Säähavainnot ja -ennusteet yli 4000 lentoasemalta (METAR- ja TAF-raportit).

Käytössä olevat sääasemat on merkitty karttaan keltaisilla ja punaisilla pisteillä.

Aseta hiiri pisteen päälle nähdäksesi sääaseman nimen.

Klikkaa sitten nähdäksesi säähavainnot ja -ennusteet.

Kartan vaihtaminen: klikkaa mustalla rastilla varustettuja vihreitä pisteitä, niin voit zoomata sisään; viivalla varustettua vihreää pistettä, niin voit zoomata ulos tai vihreitä nuolia, niin pääset viereisille kartoille.


METAR-TAF: